sensor_id;sensor_type;location;lat;lon;timestamp;P1;durP1;ratioP1;P2;durP2;ratioP2
16892;SDS011;8563;52.242;9.098;2023-02-28T00:00:50;5.90;;;3.63;;
16892;SDS011;8563;52.242;9.098;2023-02-28T00:03:22;6.53;;;3.83;;
16892;SDS011;8563;52.242;9.098;2023-02-28T00:05:55;4.67;;;3.40;;
16892;SDS011;8563;52.242;9.098;2023-02-28T00:08:27;4.00;;;3.00;;
16892;SDS011;8563;52.242;9.098;2023-02-28T00:11:00;5.10;;;2.73;;
16892;SDS011;8563;52.242;9.098;2023-02-28T00:13:36;2.97;;;2.63;;
16892;SDS011;8563;52.242;9.098;2023-02-28T00:16:10;7.00;;;3.17;;
16892;SDS011;8563;52.242;9.098;2023-02-28T00:18:43;5.57;;;3.40;;
16892;SDS011;8563;52.242;9.098;2023-02-28T00:21:17;5.10;;;2.80;;
16892;SDS011;8563;52.242;9.098;2023-02-28T00:23:50;4.13;;;2.63;;
16892;SDS011;8563;52.242;9.098;2023-02-28T00:26:23;4.53;;;3.00;;
16892;SDS011;8563;52.242;9.098;2023-02-28T00:28:57;3.20;;;2.40;;
16892;SDS011;8563;52.242;9.098;2023-02-28T00:31:29;3.80;;;2.57;;
16892;SDS011;8563;52.242;9.098;2023-02-28T00:34:01;4.43;;;2.80;;
16892;SDS011;8563;52.242;9.098;2023-02-28T00:36:35;3.57;;;2.63;;
16892;SDS011;8563;52.242;9.098;2023-02-28T00:39:08;3.57;;;2.23;;
16892;SDS011;8563;52.242;9.098;2023-02-28T00:41:41;4.40;;;2.17;;
16892;SDS011;8563;52.242;9.098;2023-02-28T00:44:14;4.00;;;2.50;;
16892;SDS011;8563;52.242;9.098;2023-02-28T00:46:47;2.97;;;2.03;;
16892;SDS011;8563;52.242;9.098;2023-02-28T00:49:19;3.73;;;2.33;;
16892;SDS011;8563;52.242;9.098;2023-02-28T00:51:52;3.10;;;2.33;;
16892;SDS011;8563;52.242;9.098;2023-02-28T00:54:24;3.70;;;2.10;;
16892;SDS011;8563;52.242;9.098;2023-02-28T00:56:57;2.93;;;2.20;;
16892;SDS011;8563;52.242;9.098;2023-02-28T00:59:31;3.13;;;1.87;;
16892;SDS011;8563;52.242;9.098;2023-02-28T01:02:04;2.53;;;1.67;;
16892;SDS011;8563;52.242;9.098;2023-02-28T01:04:36;2.87;;;1.67;;
16892;SDS011;8563;52.242;9.098;2023-02-28T01:07:09;2.20;;;1.50;;
16892;SDS011;8563;52.242;9.098;2023-02-28T01:09:41;2.20;;;1.63;;
16892;SDS011;8563;52.242;9.098;2023-02-28T01:12:14;1.63;;;1.30;;
16892;SDS011;8563;52.242;9.098;2023-02-28T01:14:47;1.67;;;1.37;;
16892;SDS011;8563;52.242;9.098;2023-02-28T01:17:20;3.47;;;1.90;;
16892;SDS011;8563;52.242;9.098;2023-02-28T01:19:52;2.90;;;1.63;;
16892;SDS011;8563;52.242;9.098;2023-02-28T01:22:25;3.87;;;1.77;;
16892;SDS011;8563;52.242;9.098;2023-02-28T01:24:58;4.17;;;2.10;;
16892;SDS011;8563;52.242;9.098;2023-02-28T01:27:30;2.97;;;1.87;;
16892;SDS011;8563;52.242;9.098;2023-02-28T01:30:05;1.83;;;1.60;;
16892;SDS011;8563;52.242;9.098;2023-02-28T01:32:38;2.40;;;1.80;;
16892;SDS011;8563;52.242;9.098;2023-02-28T01:35:10;4.43;;;2.03;;
16892;SDS011;8563;52.242;9.098;2023-02-28T01:37:43;3.30;;;1.80;;
16892;SDS011;8563;52.242;9.098;2023-02-28T01:40:15;2.47;;;1.50;;
16892;SDS011;8563;52.242;9.098;2023-02-28T01:42:47;2.63;;;1.80;;
16892;SDS011;8563;52.242;9.098;2023-02-28T01:45:23;4.23;;;1.90;;
16892;SDS011;8563;52.242;9.098;2023-02-28T01:47:58;2.80;;;1.70;;
16892;SDS011;8563;52.242;9.098;2023-02-28T01:50:33;2.77;;;2.17;;
16892;SDS011;8563;52.242;9.098;2023-02-28T01:53:08;2.97;;;1.77;;
16892;SDS011;8563;52.242;9.098;2023-02-28T01:55:42;2.43;;;1.63;;
16892;SDS011;8563;52.242;9.098;2023-02-28T01:58:17;3.83;;;1.80;;
16892;SDS011;8563;52.242;9.098;2023-02-28T02:00:52;3.13;;;1.80;;
16892;SDS011;8563;52.242;9.098;2023-02-28T02:03:24;2.30;;;1.27;;
16892;SDS011;8563;52.242;9.098;2023-02-28T02:05:57;2.23;;;1.30;;
16892;SDS011;8563;52.242;9.098;2023-02-28T02:08:29;2.87;;;1.03;;
16892;SDS011;8563;52.242;9.098;2023-02-28T02:11:02;1.67;;;1.20;;
16892;SDS011;8563;52.242;9.098;2023-02-28T02:13:38;3.50;;;1.37;;
16892;SDS011;8563;52.242;9.098;2023-02-28T02:16:20;2.33;;;1.00;;
16892;SDS011;8563;52.242;9.098;2023-02-28T02:18:57;1.10;;;0.87;;
16892;SDS011;8563;52.242;9.098;2023-02-28T02:21:43;2.30;;;1.27;;
16892;SDS011;8563;52.242;9.098;2023-02-28T02:27:15;2.77;;;1.70;;
16892;SDS011;8563;52.242;9.098;2023-02-28T02:29:57;4.23;;;1.67;;
16892;SDS011;8563;52.242;9.098;2023-02-28T02:32:47;2.90;;;1.60;;
16892;SDS011;8563;52.242;9.098;2023-02-28T02:35:28;3.33;;;1.50;;
16892;SDS011;8563;52.242;9.098;2023-02-28T02:38:04;2.80;;;1.50;;
16892;SDS011;8563;52.242;9.098;2023-02-28T02:40:41;2.47;;;1.10;;
16892;SDS011;8563;52.242;9.098;2023-02-28T02:43:16;2.87;;;1.17;;
16892;SDS011;8563;52.242;9.098;2023-02-28T02:45:49;1.50;;;0.83;;
16892;SDS011;8563;52.242;9.098;2023-02-28T02:48:26;1.40;;;0.90;;
16892;SDS011;8563;52.242;9.098;2023-02-28T02:51:04;2.77;;;0.90;;
16892;SDS011;8563;52.242;9.098;2023-02-28T02:53:44;2.70;;;0.87;;
16892;SDS011;8563;52.242;9.098;2023-02-28T02:56:20;1.77;;;0.70;;
16892;SDS011;8563;52.242;9.098;2023-02-28T02:58:57;1.37;;;0.77;;
16892;SDS011;8563;52.242;9.098;2023-02-28T03:01:32;1.37;;;0.80;;
16892;SDS011;8563;52.242;9.098;2023-02-28T03:04:07;2.20;;;1.10;;
16892;SDS011;8563;52.242;9.098;2023-02-28T03:06:43;1.40;;;0.90;;
16892;SDS011;8563;52.242;9.098;2023-02-28T03:09:16;2.60;;;0.90;;
16892;SDS011;8563;52.242;9.098;2023-02-28T03:11:49;2.10;;;0.70;;
16892;SDS011;8563;52.242;9.098;2023-02-28T03:14:25;1.03;;;0.63;;
16892;SDS011;8563;52.242;9.098;2023-02-28T03:17:02;1.50;;;0.73;;
16892;SDS011;8563;52.242;9.098;2023-02-28T03:19:44;3.63;;;0.90;;
16892;SDS011;8563;52.242;9.098;2023-02-28T03:22:22;1.73;;;0.90;;
16892;SDS011;8563;52.242;9.098;2023-02-28T03:24:56;2.20;;;0.80;;
16892;SDS011;8563;52.242;9.098;2023-02-28T03:27:35;2.57;;;1.50;;
16892;SDS011;8563;52.242;9.098;2023-02-28T03:30:10;4.50;;;1.80;;
16892;SDS011;8563;52.242;9.098;2023-02-28T03:32:49;2.40;;;1.37;;
16892;SDS011;8563;52.242;9.098;2023-02-28T03:35:23;1.67;;;1.00;;
16892;SDS011;8563;52.242;9.098;2023-02-28T03:38:00;2.20;;;1.30;;
16892;SDS011;8563;52.242;9.098;2023-02-28T03:40:35;2.30;;;1.60;;
16892;SDS011;8563;52.242;9.098;2023-02-28T03:43:09;3.53;;;1.33;;
16892;SDS011;8563;52.242;9.098;2023-02-28T03:45:44;6.03;;;1.40;;
16892;SDS011;8563;52.242;9.098;2023-02-28T03:48:18;2.53;;;1.40;;
16892;SDS011;8563;52.242;9.098;2023-02-28T03:50:53;2.23;;;1.30;;
16892;SDS011;8563;52.242;9.098;2023-02-28T03:53:29;2.10;;;1.17;;
16892;SDS011;8563;52.242;9.098;2023-02-28T03:56:05;1.87;;;1.10;;
16892;SDS011;8563;52.242;9.098;2023-02-28T03:58:40;2.30;;;1.27;;
16892;SDS011;8563;52.242;9.098;2023-02-28T04:01:15;1.27;;;1.00;;
16892;SDS011;8563;52.242;9.098;2023-02-28T04:03:48;1.97;;;1.13;;
16892;SDS011;8563;52.242;9.098;2023-02-28T04:06:22;1.77;;;1.00;;
16892;SDS011;8563;52.242;9.098;2023-02-28T04:08:56;3.13;;;1.20;;
16892;SDS011;8563;52.242;9.098;2023-02-28T04:11:30;2.37;;;1.07;;
16892;SDS011;8563;52.242;9.098;2023-02-28T04:14:04;2.53;;;1.70;;
16892;SDS011;8563;52.242;9.098;2023-02-28T04:16:37;3.47;;;1.93;;
16892;SDS011;8563;52.242;9.098;2023-02-28T04:19:10;2.83;;;1.63;;
16892;SDS011;8563;52.242;9.098;2023-02-28T04:21:44;3.17;;;1.90;;
16892;SDS011;8563;52.242;9.098;2023-02-28T04:24:18;3.10;;;2.10;;
16892;SDS011;8563;52.242;9.098;2023-02-28T04:26:51;3.67;;;1.90;;
16892;SDS011;8563;52.242;9.098;2023-02-28T04:29:25;3.80;;;2.10;;
16892;SDS011;8563;52.242;9.098;2023-02-28T04:31:58;2.30;;;1.70;;
16892;SDS011;8563;52.242;9.098;2023-02-28T04:34:31;3.60;;;2.10;;
16892;SDS011;8563;52.242;9.098;2023-02-28T04:37:04;2.47;;;1.80;;
16892;SDS011;8563;52.242;9.098;2023-02-28T04:39:39;2.63;;;1.97;;
16892;SDS011;8563;52.242;9.098;2023-02-28T04:42:12;2.87;;;1.67;;
16892;SDS011;8563;52.242;9.098;2023-02-28T04:44:44;2.60;;;1.70;;
16892;SDS011;8563;52.242;9.098;2023-02-28T04:47:17;6.53;;;3.73;;
16892;SDS011;8563;52.242;9.098;2023-02-28T04:49:49;8.20;;;4.07;;
16892;SDS011;8563;52.242;9.098;2023-02-28T04:52:22;7.03;;;3.80;;
16892;SDS011;8563;52.242;9.098;2023-02-28T04:54:55;4.03;;;2.47;;
16892;SDS011;8563;52.242;9.098;2023-02-28T04:57:28;4.90;;;2.73;;
16892;SDS011;8563;52.242;9.098;2023-02-28T05:00:00;5.60;;;2.40;;
16892;SDS011;8563;52.242;9.098;2023-02-28T05:02:36;5.80;;;2.80;;
16892;SDS011;8563;52.242;9.098;2023-02-28T05:05:08;6.63;;;2.97;;
16892;SDS011;8563;52.242;9.098;2023-02-28T05:07:42;5.03;;;2.63;;
16892;SDS011;8563;52.242;9.098;2023-02-28T05:10:16;3.90;;;2.20;;
16892;SDS011;8563;52.242;9.098;2023-02-28T05:12:48;3.97;;;2.40;;
16892;SDS011;8563;52.242;9.098;2023-02-28T05:15:21;2.57;;;1.63;;
16892;SDS011;8563;52.242;9.098;2023-02-28T05:17:53;2.97;;;1.70;;
16892;SDS011;8563;52.242;9.098;2023-02-28T05:20:25;2.30;;;1.40;;
16892;SDS011;8563;52.242;9.098;2023-02-28T05:22:58;2.73;;;1.60;;
16892;SDS011;8563;52.242;9.098;2023-02-28T05:25:32;2.63;;;1.40;;
16892;SDS011;8563;52.242;9.098;2023-02-28T05:28:04;3.63;;;1.50;;
16892;SDS011;8563;52.242;9.098;2023-02-28T05:30:37;2.90;;;1.67;;
16892;SDS011;8563;52.242;9.098;2023-02-28T05:33:10;3.70;;;1.80;;
16892;SDS011;8563;52.242;9.098;2023-02-28T05:35:43;4.23;;;1.80;;
16892;SDS011;8563;52.242;9.098;2023-02-28T05:38:15;3.77;;;2.30;;
16892;SDS011;8563;52.242;9.098;2023-02-28T05:40:49;3.30;;;2.40;;
16892;SDS011;8563;52.242;9.098;2023-02-28T05:43:22;5.37;;;2.87;;
16892;SDS011;8563;52.242;9.098;2023-02-28T05:45:54;5.30;;;2.80;;
16892;SDS011;8563;52.242;9.098;2023-02-28T05:48:27;3.70;;;1.90;;
16892;SDS011;8563;52.242;9.098;2023-02-28T05:50:59;2.67;;;1.87;;
16892;SDS011;8563;52.242;9.098;2023-02-28T05:53:33;3.30;;;1.80;;
16892;SDS011;8563;52.242;9.098;2023-02-28T05:56:07;3.53;;;1.80;;
16892;SDS011;8563;52.242;9.098;2023-02-28T05:58:39;3.63;;;2.20;;
16892;SDS011;8563;52.242;9.098;2023-02-28T06:01:25;3.93;;;2.00;;
16892;SDS011;8563;52.242;9.098;2023-02-28T06:04:03;5.60;;;2.43;;
16892;SDS011;8563;52.242;9.098;2023-02-28T06:06:35;5.33;;;3.03;;
16892;SDS011;8563;52.242;9.098;2023-02-28T06:09:09;4.63;;;2.80;;
16892;SDS011;8563;52.242;9.098;2023-02-28T06:11:43;5.60;;;2.80;;
16892;SDS011;8563;52.242;9.098;2023-02-28T06:14:16;4.67;;;2.47;;
16892;SDS011;8563;52.242;9.098;2023-02-28T06:16:48;8.27;;;5.30;;
16892;SDS011;8563;52.242;9.098;2023-02-28T06:19:21;12.17;;;7.13;;
16892;SDS011;8563;52.242;9.098;2023-02-28T06:21:56;18.37;;;8.80;;
16892;SDS011;8563;52.242;9.098;2023-02-28T06:24:29;10.90;;;6.97;;
16892;SDS011;8563;52.242;9.098;2023-02-28T06:27:04;12.60;;;6.57;;
16892;SDS011;8563;52.242;9.098;2023-02-28T06:29:36;13.07;;;5.83;;
16892;SDS011;8563;52.242;9.098;2023-02-28T06:32:09;13.93;;;5.43;;
16892;SDS011;8563;52.242;9.098;2023-02-28T06:34:42;15.93;;;5.60;;
16892;SDS011;8563;52.242;9.098;2023-02-28T06:37:14;12.07;;;4.60;;
16892;SDS011;8563;52.242;9.098;2023-02-28T06:39:47;9.17;;;3.40;;
16892;SDS011;8563;52.242;9.098;2023-02-28T06:42:21;5.77;;;2.83;;
16892;SDS011;8563;52.242;9.098;2023-02-28T06:44:55;8.57;;;3.33;;
16892;SDS011;8563;52.242;9.098;2023-02-28T06:47:27;8.70;;;4.30;;
16892;SDS011;8563;52.242;9.098;2023-02-28T06:49:59;7.27;;;4.10;;
16892;SDS011;8563;52.242;9.098;2023-02-28T06:52:32;7.30;;;3.40;;
16892;SDS011;8563;52.242;9.098;2023-02-28T06:55:06;2.70;;;2.13;;
16892;SDS011;8563;52.242;9.098;2023-02-28T06:57:41;3.67;;;1.63;;
16892;SDS011;8563;52.242;9.098;2023-02-28T07:00:13;3.40;;;1.83;;
16892;SDS011;8563;52.242;9.098;2023-02-28T07:02:46;2.23;;;1.50;;
16892;SDS011;8563;52.242;9.098;2023-02-28T07:05:19;2.63;;;1.53;;
16892;SDS011;8563;52.242;9.098;2023-02-28T07:07:51;4.00;;;1.63;;
16892;SDS011;8563;52.242;9.098;2023-02-28T07:10:24;2.93;;;1.90;;
16892;SDS011;8563;52.242;9.098;2023-02-28T07:12:58;3.23;;;1.63;;
16892;SDS011;8563;52.242;9.098;2023-02-28T07:15:31;2.53;;;1.80;;
16892;SDS011;8563;52.242;9.098;2023-02-28T07:18:03;2.43;;;1.63;;
16892;SDS011;8563;52.242;9.098;2023-02-28T07:20:36;2.73;;;2.00;;
16892;SDS011;8563;52.242;9.098;2023-02-28T07:23:08;3.20;;;2.03;;
16892;SDS011;8563;52.242;9.098;2023-02-28T07:25:40;3.30;;;2.00;;
16892;SDS011;8563;52.242;9.098;2023-02-28T07:28:15;4.60;;;2.20;;
16892;SDS011;8563;52.242;9.098;2023-02-28T07:30:48;2.83;;;1.97;;
16892;SDS011;8563;52.242;9.098;2023-02-28T07:33:20;5.53;;;2.50;;
16892;SDS011;8563;52.242;9.098;2023-02-28T07:35:59;3.20;;;2.03;;
16892;SDS011;8563;52.242;9.098;2023-02-28T07:38:33;4.30;;;2.83;;
16892;SDS011;8563;52.242;9.098;2023-02-28T07:41:05;3.77;;;2.30;;
16892;SDS011;8563;52.242;9.098;2023-02-28T07:43:39;2.80;;;2.13;;
16892;SDS011;8563;52.242;9.098;2023-02-28T07:46:12;6.77;;;2.23;;
16892;SDS011;8563;52.242;9.098;2023-02-28T07:48:46;3.93;;;1.80;;
16892;SDS011;8563;52.242;9.098;2023-02-28T07:51:18;3.40;;;1.83;;
16892;SDS011;8563;52.242;9.098;2023-02-28T07:53:51;4.90;;;2.23;;
16892;SDS011;8563;52.242;9.098;2023-02-28T07:56:23;3.17;;;2.20;;
16892;SDS011;8563;52.242;9.098;2023-02-28T07:58:57;3.77;;;2.40;;
16892;SDS011;8563;52.242;9.098;2023-02-28T08:01:29;3.33;;;2.50;;
16892;SDS011;8563;52.242;9.098;2023-02-28T08:04:02;6.00;;;2.60;;
16892;SDS011;8563;52.242;9.098;2023-02-28T08:06:34;3.00;;;2.27;;
16892;SDS011;8563;52.242;9.098;2023-02-28T08:09:06;4.70;;;2.57;;
16892;SDS011;8563;52.242;9.098;2023-02-28T08:11:39;3.27;;;2.40;;
16892;SDS011;8563;52.242;9.098;2023-02-28T08:14:13;3.87;;;2.40;;
16892;SDS011;8563;52.242;9.098;2023-02-28T08:16:45;4.27;;;2.87;;
16892;SDS011;8563;52.242;9.098;2023-02-28T08:19:19;5.13;;;2.90;;
16892;SDS011;8563;52.242;9.098;2023-02-28T08:21:51;5.97;;;3.93;;
16892;SDS011;8563;52.242;9.098;2023-02-28T08:24:24;6.10;;;3.90;;
16892;SDS011;8563;52.242;9.098;2023-02-28T08:26:56;5.53;;;3.63;;
16892;SDS011;8563;52.242;9.098;2023-02-28T08:29:30;7.63;;;3.50;;
16892;SDS011;8563;52.242;9.098;2023-02-28T08:32:03;3.93;;;2.80;;
16892;SDS011;8563;52.242;9.098;2023-02-28T08:34:38;4.80;;;3.00;;
16892;SDS011;8563;52.242;9.098;2023-02-28T08:37:10;4.83;;;2.43;;
16892;SDS011;8563;52.242;9.098;2023-02-28T08:39:43;4.37;;;3.07;;
16892;SDS011;8563;52.242;9.098;2023-02-28T08:42:15;3.27;;;2.40;;
16892;SDS011;8563;52.242;9.098;2023-02-28T08:44:49;2.80;;;1.97;;
16892;SDS011;8563;52.242;9.098;2023-02-28T08:47:21;2.97;;;2.10;;
16892;SDS011;8563;52.242;9.098;2023-02-28T08:49:54;4.70;;;2.00;;
16892;SDS011;8563;52.242;9.098;2023-02-28T08:52:26;4.60;;;2.10;;
16892;SDS011;8563;52.242;9.098;2023-02-28T08:54:59;4.93;;;2.17;;
16892;SDS011;8563;52.242;9.098;2023-02-28T08:57:32;2.60;;;1.50;;
16892;SDS011;8563;52.242;9.098;2023-02-28T09:00:07;4.83;;;1.80;;
16892;SDS011;8563;52.242;9.098;2023-02-28T09:02:40;3.57;;;2.10;;
16892;SDS011;8563;52.242;9.098;2023-02-28T09:05:13;3.13;;;2.07;;
16892;SDS011;8563;52.242;9.098;2023-02-28T09:07:46;4.27;;;2.10;;
16892;SDS011;8563;52.242;9.098;2023-02-28T09:10:18;3.23;;;2.20;;
16892;SDS011;8563;52.242;9.098;2023-02-28T09:12:51;2.97;;;1.73;;
16892;SDS011;8563;52.242;9.098;2023-02-28T09:15:25;2.47;;;2.00;;
16892;SDS011;8563;52.242;9.098;2023-02-28T09:17:57;3.33;;;1.53;;
16892;SDS011;8563;52.242;9.098;2023-02-28T09:20:29;2.83;;;1.27;;
16892;SDS011;8563;52.242;9.098;2023-02-28T09:23:02;2.40;;;1.53;;
16892;SDS011;8563;52.242;9.098;2023-02-28T09:25:34;2.83;;;1.90;;
16892;SDS011;8563;52.242;9.098;2023-02-28T09:28:07;2.13;;;1.80;;
16892;SDS011;8563;52.242;9.098;2023-02-28T09:30:41;3.73;;;1.93;;
16892;SDS011;8563;52.242;9.098;2023-02-28T09:33:13;3.07;;;1.90;;
16892;SDS011;8563;52.242;9.098;2023-02-28T09:35:46;1.73;;;1.30;;
16892;SDS011;8563;52.242;9.098;2023-02-28T09:38:18;2.73;;;1.70;;
16892;SDS011;8563;52.242;9.098;2023-02-28T09:40:52;2.40;;;1.50;;
16892;SDS011;8563;52.242;9.098;2023-02-28T09:43:26;2.23;;;1.50;;
16892;SDS011;8563;52.242;9.098;2023-02-28T09:46:04;4.77;;;1.90;;
16892;SDS011;8563;52.242;9.098;2023-02-28T09:48:42;2.93;;;1.50;;
16892;SDS011;8563;52.242;9.098;2023-02-28T09:51:23;1.60;;;1.17;;
16892;SDS011;8563;52.242;9.098;2023-02-28T09:53:58;2.70;;;1.40;;
16892;SDS011;8563;52.242;9.098;2023-02-28T09:56:33;2.17;;;1.10;;
16892;SDS011;8563;52.242;9.098;2023-02-28T09:59:09;2.47;;;0.83;;
16892;SDS011;8563;52.242;9.098;2023-02-28T10:01:47;1.70;;;1.10;;
16892;SDS011;8563;52.242;9.098;2023-02-28T10:04:27;1.67;;;0.80;;
16892;SDS011;8563;52.242;9.098;2023-02-28T10:07:06;1.63;;;0.90;;
16892;SDS011;8563;52.242;9.098;2023-02-28T10:09:49;2.80;;;1.00;;
16892;SDS011;8563;52.242;9.098;2023-02-28T10:12:24;1.80;;;0.93;;
16892;SDS011;8563;52.242;9.098;2023-02-28T10:14:57;1.20;;;0.80;;
16892;SDS011;8563;52.242;9.098;2023-02-28T10:17:35;2.40;;;0.90;;
16892;SDS011;8563;52.242;9.098;2023-02-28T10:20:10;1.60;;;1.00;;
16892;SDS011;8563;52.242;9.098;2023-02-28T10:22:49;1.10;;;0.80;;
16892;SDS011;8563;52.242;9.098;2023-02-28T10:25:23;2.63;;;0.90;;
16892;SDS011;8563;52.242;9.098;2023-02-28T10:27:57;2.67;;;1.10;;
16892;SDS011;8563;52.242;9.098;2023-02-28T10:30:33;1.23;;;0.90;;
16892;SDS011;8563;52.242;9.098;2023-02-28T10:33:08;3.17;;;0.80;;
16892;SDS011;8563;52.242;9.098;2023-02-28T10:35:42;2.30;;;0.70;;
16892;SDS011;8563;52.242;9.098;2023-02-28T10:38:16;1.83;;;0.83;;
16892;SDS011;8563;52.242;9.098;2023-02-28T10:40:49;0.83;;;0.70;;
16892;SDS011;8563;52.242;9.098;2023-02-28T10:43:22;0.80;;;0.60;;
16892;SDS011;8563;52.242;9.098;2023-02-28T10:45:57;1.70;;;0.90;;
16892;SDS011;8563;52.242;9.098;2023-02-28T10:48:45;0.97;;;0.60;;
16892;SDS011;8563;52.242;9.098;2023-02-28T10:51:19;1.03;;;0.60;;
16892;SDS011;8563;52.242;9.098;2023-02-28T10:53:52;1.37;;;0.80;;
16892;SDS011;8563;52.242;9.098;2023-02-28T10:56:24;1.17;;;0.60;;
16892;SDS011;8563;52.242;9.098;2023-02-28T10:58:58;1.53;;;0.73;;
16892;SDS011;8563;52.242;9.098;2023-02-28T11:01:36;0.80;;;0.70;;
16892;SDS011;8563;52.242;9.098;2023-02-28T11:04:31;2.37;;;1.30;;
16892;SDS011;8563;52.242;9.098;2023-02-28T11:07:06;1.80;;;0.80;;
16892;SDS011;8563;52.242;9.098;2023-02-28T11:09:48;1.00;;;0.70;;
16892;SDS011;8563;52.242;9.098;2023-02-28T11:12:21;2.17;;;1.00;;
16892;SDS011;8563;52.242;9.098;2023-02-28T11:14:56;2.63;;;0.73;;
16892;SDS011;8563;52.242;9.098;2023-02-28T11:17:30;0.90;;;0.70;;
16892;SDS011;8563;52.242;9.098;2023-02-28T11:20:06;1.30;;;0.87;;
16892;SDS011;8563;52.242;9.098;2023-02-28T11:22:40;1.40;;;0.80;;
16892;SDS011;8563;52.242;9.098;2023-02-28T11:25:16;2.73;;;0.90;;
16892;SDS011;8563;52.242;9.098;2023-02-28T11:27:51;1.03;;;0.70;;
16892;SDS011;8563;52.242;9.098;2023-02-28T11:30:29;2.07;;;0.67;;
16892;SDS011;8563;52.242;9.098;2023-02-28T11:33:16;0.97;;;0.80;;
16892;SDS011;8563;52.242;9.098;2023-02-28T11:35:52;1.47;;;0.80;;
16892;SDS011;8563;52.242;9.098;2023-02-28T11:38:26;1.83;;;0.80;;
16892;SDS011;8563;52.242;9.098;2023-02-28T11:41:05;2.43;;;0.90;;
16892;SDS011;8563;52.242;9.098;2023-02-28T11:43:44;1.13;;;0.70;;
16892;SDS011;8563;52.242;9.098;2023-02-28T11:46:23;1.27;;;0.80;;
16892;SDS011;8563;52.242;9.098;2023-02-28T11:49:01;1.37;;;0.90;;
16892;SDS011;8563;52.242;9.098;2023-02-28T11:51:40;3.47;;;0.90;;
16892;SDS011;8563;52.242;9.098;2023-02-28T11:54:26;2.37;;;1.00;;
16892;SDS011;8563;52.242;9.098;2023-02-28T11:57:03;2.40;;;0.90;;
16892;SDS011;8563;52.242;9.098;2023-02-28T11:59:48;1.40;;;0.77;;
16892;SDS011;8563;52.242;9.098;2023-02-28T12:02:24;2.23;;;1.10;;
16892;SDS011;8563;52.242;9.098;2023-02-28T12:05:05;4.80;;;1.10;;
16892;SDS011;8563;52.242;9.098;2023-02-28T12:07:46;2.63;;;0.83;;
16892;SDS011;8563;52.242;9.098;2023-02-28T12:10:21;1.53;;;0.77;;
16892;SDS011;8563;52.242;9.098;2023-02-28T12:15:50;2.40;;;1.40;;
16892;SDS011;8563;52.242;9.098;2023-02-28T12:18:34;1.93;;;1.27;;
16892;SDS011;8563;52.242;9.098;2023-02-28T12:21:12;2.47;;;1.20;;
16892;SDS011;8563;52.242;9.098;2023-02-28T12:23:52;2.00;;;1.40;;
16892;SDS011;8563;52.242;9.098;2023-02-28T12:26:32;3.00;;;1.47;;
16892;SDS011;8563;52.242;9.098;2023-02-28T12:29:10;1.83;;;1.37;;
16892;SDS011;8563;52.242;9.098;2023-02-28T12:31:45;2.23;;;1.47;;
16892;SDS011;8563;52.242;9.098;2023-02-28T12:34:19;2.83;;;1.33;;
16892;SDS011;8563;52.242;9.098;2023-02-28T12:36:53;3.13;;;1.50;;
16892;SDS011;8563;52.242;9.098;2023-02-28T12:39:28;3.70;;;1.40;;
16892;SDS011;8563;52.242;9.098;2023-02-28T12:42:03;1.63;;;1.20;;
16892;SDS011;8563;52.242;9.098;2023-02-28T12:44:39;2.63;;;1.40;;
16892;SDS011;8563;52.242;9.098;2023-02-28T12:47:14;2.30;;;1.40;;
16892;SDS011;8563;52.242;9.098;2023-02-28T12:49:48;2.13;;;1.13;;
16892;SDS011;8563;52.242;9.098;2023-02-28T12:52:23;1.80;;;1.30;;
16892;SDS011;8563;52.242;9.098;2023-02-28T12:55:00;1.63;;;1.17;;
16892;SDS011;8563;52.242;9.098;2023-02-28T12:57:36;1.67;;;1.30;;
16892;SDS011;8563;52.242;9.098;2023-02-28T13:00:11;2.92;;;1.17;;
16892;SDS011;8563;52.242;9.098;2023-02-28T13:05:46;1.97;;;1.00;;
16892;SDS011;8563;52.242;9.098;2023-02-28T13:11:28;1.80;;;1.40;;
16892;SDS011;8563;52.242;9.098;2023-02-28T13:14:02;2.90;;;1.20;;
16892;SDS011;8563;52.242;9.098;2023-02-28T13:19:39;3.93;;;1.77;;
16892;SDS011;8563;52.242;9.098;2023-02-28T13:22:16;4.23;;;1.50;;
16892;SDS011;8563;52.242;9.098;2023-02-28T13:24:49;2.67;;;1.30;;
16892;SDS011;8563;52.242;9.098;2023-02-28T13:27:34;2.67;;;1.30;;
16892;SDS011;8563;52.242;9.098;2023-02-28T13:33:21;2.40;;;1.30;;
16892;SDS011;8563;52.242;9.098;2023-02-28T13:36:07;3.17;;;1.47;;
16892;SDS011;8563;52.242;9.098;2023-02-28T13:38:40;2.33;;;1.37;;
16892;SDS011;8563;52.242;9.098;2023-02-28T13:44:06;2.20;;;1.50;;
16892;SDS011;8563;52.242;9.098;2023-02-28T13:49:31;2.43;;;1.63;;
16892;SDS011;8563;52.242;9.098;2023-02-28T13:52:07;1.83;;;1.30;;
16892;SDS011;8563;52.242;9.098;2023-02-28T13:54:49;2.97;;;1.00;;
16892;SDS011;8563;52.242;9.098;2023-02-28T13:57:27;3.53;;;1.30;;
16892;SDS011;8563;52.242;9.098;2023-02-28T14:00:06;3.27;;;1.70;;
16892;SDS011;8563;52.242;9.098;2023-02-28T14:02:48;2.17;;;1.40;;
16892;SDS011;8563;52.242;9.098;2023-02-28T14:05:22;5.27;;;1.50;;
16892;SDS011;8563;52.242;9.098;2023-02-28T14:07:57;2.40;;;1.63;;
16892;SDS011;8563;52.242;9.098;2023-02-28T14:10:30;3.97;;;1.80;;
16892;SDS011;8563;52.242;9.098;2023-02-28T14:13:04;5.00;;;1.50;;
16892;SDS011;8563;52.242;9.098;2023-02-28T14:16:00;2.40;;;1.50;;
16892;SDS011;8563;52.242;9.098;2023-02-28T14:18:33;4.23;;;1.57;;
16892;SDS011;8563;52.242;9.098;2023-02-28T14:21:11;1.97;;;1.30;;
16892;SDS011;8563;52.242;9.098;2023-02-28T14:23:48;2.60;;;1.50;;
16892;SDS011;8563;52.242;9.098;2023-02-28T14:26:27;2.23;;;1.50;;
16892;SDS011;8563;52.242;9.098;2023-02-28T14:29:09;2.57;;;1.40;;
16892;SDS011;8563;52.242;9.098;2023-02-28T14:31:45;1.70;;;1.50;;
16892;SDS011;8563;52.242;9.098;2023-02-28T14:34:31;5.13;;;1.73;;
16892;SDS011;8563;52.242;9.098;2023-02-28T14:37:08;1.53;;;1.20;;
16892;SDS011;8563;52.242;9.098;2023-02-28T14:39:43;3.63;;;1.50;;
16892;SDS011;8563;52.242;9.098;2023-02-28T14:42:29;3.63;;;1.40;;
16892;SDS011;8563;52.242;9.098;2023-02-28T14:45:01;2.17;;;1.53;;
16892;SDS011;8563;52.242;9.098;2023-02-28T14:47:35;1.93;;;1.37;;
16892;SDS011;8563;52.242;9.098;2023-02-28T14:50:17;2.13;;;1.40;;
16892;SDS011;8563;52.242;9.098;2023-02-28T14:52:51;3.80;;;1.53;;
16892;SDS011;8563;52.242;9.098;2023-02-28T14:55:25;2.57;;;1.40;;
16892;SDS011;8563;52.242;9.098;2023-02-28T14:57:59;3.57;;;1.63;;
16892;SDS011;8563;52.242;9.098;2023-02-28T15:00:34;2.90;;;1.67;;
16892;SDS011;8563;52.242;9.098;2023-02-28T15:03:17;2.00;;;1.50;;
16892;SDS011;8563;52.242;9.098;2023-02-28T15:05:53;4.13;;;1.70;;
16892;SDS011;8563;52.242;9.098;2023-02-28T15:08:26;2.87;;;1.60;;
16892;SDS011;8563;52.242;9.098;2023-02-28T15:10:59;1.97;;;1.53;;
16892;SDS011;8563;52.242;9.098;2023-02-28T15:13:35;2.70;;;1.70;;
16892;SDS011;8563;52.242;9.098;2023-02-28T15:16:09;4.83;;;1.63;;
16892;SDS011;8563;52.242;9.098;2023-02-28T15:18:45;2.97;;;1.60;;
16892;SDS011;8563;52.242;9.098;2023-02-28T15:21:19;2.60;;;1.50;;
16892;SDS011;8563;52.242;9.098;2023-02-28T15:23:53;2.57;;;1.53;;
16892;SDS011;8563;52.242;9.098;2023-02-28T15:26:28;2.50;;;1.60;;
16892;SDS011;8563;52.242;9.098;2023-02-28T15:29:04;2.77;;;1.50;;
16892;SDS011;8563;52.242;9.098;2023-02-28T15:31:39;2.57;;;1.60;;
16892;SDS011;8563;52.242;9.098;2023-02-28T15:34:15;4.13;;;1.90;;
16892;SDS011;8563;52.242;9.098;2023-02-28T15:36:50;2.30;;;1.50;;
16892;SDS011;8563;52.242;9.098;2023-02-28T15:39:24;8.37;;;1.70;;
16892;SDS011;8563;52.242;9.098;2023-02-28T15:42:10;2.37;;;1.67;;
16892;SDS011;8563;52.242;9.098;2023-02-28T15:44:43;3.83;;;1.43;;
16892;SDS011;8563;52.242;9.098;2023-02-28T15:47:16;3.27;;;1.90;;
16892;SDS011;8563;52.242;9.098;2023-02-28T15:49:51;2.33;;;1.40;;
16892;SDS011;8563;52.242;9.098;2023-02-28T15:52:26;3.23;;;1.53;;
16892;SDS011;8563;52.242;9.098;2023-02-28T15:54:59;2.03;;;1.37;;
16892;SDS011;8563;52.242;9.098;2023-02-28T15:57:39;4.63;;;1.60;;
16892;SDS011;8563;52.242;9.098;2023-02-28T16:00:13;2.00;;;1.77;;
16892;SDS011;8563;52.242;9.098;2023-02-28T16:02:46;6.83;;;2.00;;
16892;SDS011;8563;52.242;9.098;2023-02-28T16:05:22;3.30;;;1.70;;
16892;SDS011;8563;52.242;9.098;2023-02-28T16:07:59;2.97;;;1.80;;
16892;SDS011;8563;52.242;9.098;2023-02-28T16:10:31;3.00;;;2.10;;